createdAt,value
2023-06-13T00:00:12.427Z,90949.72
2023-06-13T00:02:39.566Z,90943.84
2023-06-13T00:05:12.831Z,90952.03
2023-06-13T00:07:39.838Z,90941.91
2023-06-13T00:10:08.068Z,90938.56
2023-06-13T00:12:38.432Z,90943.13
2023-06-13T00:15:05.623Z,90941.66
2023-06-13T00:17:33.285Z,90942.47
2023-06-13T00:20:05.340Z,90936.16
2023-06-13T00:22:32.075Z,90946.41
2023-06-13T00:24:59.126Z,90940.53
2023-06-13T00:27:26.051Z,90942.47
2023-06-13T00:29:52.889Z,90949.19
2023-06-13T00:32:20.696Z,90938.59
2023-06-13T00:34:48.208Z,90942.53
2023-06-13T00:37:15.653Z,90947.25
2023-06-13T00:39:42.465Z,90953.53
2023-06-13T00:42:14.210Z,90944.13
2023-06-13T00:44:41.116Z,90944.91
2023-06-13T00:47:08.461Z,90939.16
2023-06-13T00:49:36.166Z,90953.31
2023-06-13T00:52:07.349Z,90914.13
2023-06-13T00:54:39.292Z,90942.84
2023-06-13T00:57:08.588Z,90942.31
2023-06-13T00:59:35.844Z,90938.16
2023-06-13T01:02:04.575Z,90942.63
2023-06-13T01:04:36.940Z,90945.22
2023-06-13T01:07:07.269Z,90935.03
2023-06-13T01:09:34.200Z,90938.66
2023-06-13T01:12:03.626Z,90940.16
2023-06-13T01:14:45.767Z,90926.19
2023-06-13T01:17:25.620Z,90929.19
2023-06-13T01:19:54.901Z,90935.03
2023-06-13T01:22:24.558Z,90928.19
2023-06-13T01:25:21.862Z,90918.63
2023-06-13T01:27:55.485Z,90926.09
2023-06-13T01:30:23.460Z,90936.66
2023-06-13T01:32:52.577Z,90932.25
2023-06-13T01:35:20.355Z,90935.81
2023-06-13T01:37:47.547Z,90943.56
2023-06-13T01:40:17.614Z,90936.16
2023-06-13T01:42:44.414Z,90916.00
2023-06-13T01:45:11.997Z,90931.19
2023-06-13T01:47:52.576Z,90935.28
2023-06-13T01:50:30.844Z,90933.34
2023-06-13T01:53:03.954Z,90922.72
2023-06-13T01:55:43.872Z,90932.34
2023-06-13T01:58:34.370Z,90923.72
2023-06-13T02:01:05.368Z,90932.53
2023-06-13T02:03:33.114Z,90935.44
2023-06-13T02:05:59.954Z,90933.56
2023-06-13T02:08:27.840Z,90928.69
2023-06-13T02:10:54.804Z,90933.56
2023-06-13T02:13:21.557Z,90940.00
2023-06-13T02:15:48.343Z,90937.72
2023-06-13T02:18:16.523Z,90935.00
2023-06-13T02:20:43.599Z,90929.81
2023-06-13T02:23:11.054Z,90936.06
2023-06-13T02:25:37.745Z,90935.00
2023-06-13T02:28:04.625Z,90933.84
2023-06-13T02:30:31.617Z,90929.81
2023-06-13T02:32:59.419Z,90939.28
2023-06-13T02:35:26.116Z,90942.69
2023-06-13T02:37:55.974Z,90944.25
2023-06-13T02:40:24.173Z,90941.13
2023-06-13T02:42:53.964Z,90937.06
2023-06-13T02:45:22.546Z,90942.78
2023-06-13T02:47:49.937Z,90947.03
2023-06-13T02:50:17.359Z,90940.94
2023-06-13T02:52:53.319Z,90940.81
2023-06-13T02:55:21.785Z,90934.91
2023-06-13T02:57:48.692Z,90946.03
2023-06-13T03:00:18.931Z,90951.53
2023-06-13T03:02:45.736Z,90958.53
2023-06-13T03:05:15.672Z,90961.81
2023-06-13T03:07:49.558Z,90942.16
2023-06-13T03:10:17.638Z,90961.00
2023-06-13T03:12:45.290Z,90955.25
2023-06-13T03:15:13.514Z,90955.09
2023-06-13T03:17:40.764Z,90960.34
2023-06-13T03:20:08.218Z,90959.53
2023-06-13T03:22:35.034Z,90961.72
2023-06-13T03:25:05.448Z,90968.06
2023-06-13T03:27:36.694Z,90957.66
2023-06-13T03:30:04.201Z,90961.09
2023-06-13T03:32:31.377Z,90964.09
2023-06-13T03:34:58.134Z,90974.25
2023-06-13T03:37:24.802Z,90973.13
2023-06-13T03:39:51.439Z,90971.19
2023-06-13T03:42:18.184Z,90968.59
2023-06-13T03:44:48.306Z,90972.22
2023-06-13T03:47:16.340Z,90968.31
2023-06-13T03:49:44.803Z,90978.03
2023-06-13T03:52:12.606Z,90979.50
2023-06-13T03:54:39.784Z,90984.50
2023-06-13T03:57:08.033Z,90982.59
2023-06-13T03:59:35.964Z,90990.47
2023-06-13T04:02:03.421Z,90985.53
2023-06-13T04:04:30.167Z,90991.81
2023-06-13T04:06:57.826Z,91000.03
2023-06-13T04:09:24.692Z,90993.03
2023-06-13T04:11:51.723Z,90998.59
2023-06-13T04:14:18.485Z,90996.59
2023-06-13T04:16:45.192Z,90996.53
2023-06-13T04:19:18.854Z,91001.06
2023-06-13T04:21:47.282Z,90997.94
2023-06-13T04:24:17.833Z,90996.19
2023-06-13T04:26:46.585Z,91005.22
2023-06-13T04:29:14.424Z,91004.31
2023-06-13T04:31:41.431Z,91004.84
2023-06-13T04:34:13.050Z,91005.53
2023-06-13T04:36:42.665Z,91006.56
2023-06-13T04:39:10.092Z,91002.16
2023-06-13T04:41:39.247Z,91008.06
2023-06-13T04:44:06.394Z,91011.63
2023-06-13T04:46:34.098Z,91015.25
2023-06-13T04:49:02.181Z,91016.78
2023-06-13T04:51:30.143Z,91010.59
2023-06-13T04:54:01.419Z,91013.72
2023-06-13T04:56:29.274Z,91021.81
2023-06-13T04:58:57.336Z,91025.56
2023-06-13T05:01:28.003Z,91031.97
2023-06-13T05:03:58.478Z,91029.69
2023-06-13T05:06:28.417Z,91029.34
2023-06-13T05:08:55.275Z,91032.09
2023-06-13T05:11:22.368Z,91038.38
2023-06-13T05:13:49.079Z,91039.31
2023-06-13T05:16:16.152Z,91032.44
2023-06-13T05:18:43.329Z,91040.50
2023-06-13T05:21:10.141Z,91042.78
2023-06-13T05:23:39.649Z,91032.28
2023-06-13T05:26:07.229Z,91032.97
2023-06-13T05:28:34.040Z,91046.84
2023-06-13T05:31:02.455Z,91040.75
2023-06-13T05:33:29.277Z,91051.34
2023-06-13T05:35:58.608Z,91060.31
2023-06-13T05:38:26.315Z,91048.56
2023-06-13T05:40:53.220Z,91059.72
2023-06-13T05:43:22.781Z,91047.03
2023-06-13T05:45:49.885Z,91048.78
2023-06-13T05:48:17.151Z,91064.81
2023-06-13T05:50:43.930Z,91061.78
2023-06-13T05:53:12.376Z,91063.13
2023-06-13T05:55:39.216Z,91066.34
2023-06-13T05:58:07.050Z,91069.22
2023-06-13T06:00:37.215Z,91070.38
2023-06-13T06:03:06.247Z,91063.41
2023-06-13T06:05:33.733Z,91070.81
2023-06-13T06:08:00.843Z,91068.47
2023-06-13T06:10:27.697Z,91065.28
2023-06-13T06:12:54.516Z,91063.97
2023-06-13T06:15:21.247Z,91076.94
2023-06-13T06:17:48.025Z,91073.56
2023-06-13T06:20:15.372Z,91080.22
2023-06-13T06:22:42.659Z,91078.09
2023-06-13T06:25:16.346Z,91076.88
2023-06-13T06:27:44.741Z,91070.03
2023-06-13T06:30:12.297Z,91070.03
2023-06-13T06:32:39.200Z,91073.97
2023-06-13T06:35:06.276Z,91067.19
2023-06-13T06:37:33.395Z,91066.56
2023-06-13T06:40:00.507Z,91081.72
2023-06-13T06:42:27.241Z,91077.81
2023-06-13T06:44:54.384Z,91079.69
2023-06-13T06:47:21.286Z,91086.75
2023-06-13T06:49:48.108Z,91080.59
2023-06-13T06:52:14.792Z,91083.34
2023-06-13T06:54:41.537Z,91082.69
2023-06-13T06:57:08.206Z,91075.88
2023-06-13T06:59:34.964Z,91080.31
2023-06-13T07:02:01.991Z,91079.88
2023-06-13T07:04:28.908Z,91080.47
2023-06-13T07:06:55.799Z,91080.97
2023-06-13T07:09:22.554Z,91078.75
2023-06-13T07:11:49.330Z,91076.44
2023-06-13T07:14:16.190Z,91069.00
2023-06-13T07:16:43.254Z,91071.53
2023-06-13T07:19:10.999Z,91073.75
2023-06-13T07:21:37.720Z,91081.97
2023-06-13T07:24:08.117Z,91081.84
2023-06-13T07:26:36.252Z,91071.56
2023-06-13T07:29:03.305Z,91074.81
2023-06-13T07:31:30.935Z,91068.66
2023-06-13T07:33:57.733Z,91084.84
2023-06-13T07:36:24.610Z,91087.91
2023-06-13T07:38:52.230Z,91085.16
2023-06-13T07:41:18.952Z,91080.19
2023-06-13T07:43:45.827Z,91088.97
2023-06-13T07:46:12.690Z,91082.81
2023-06-13T07:48:39.482Z,91090.13
2023-06-13T07:51:06.728Z,91080.50
2023-06-13T07:53:33.656Z,91081.94
2023-06-13T07:56:00.501Z,91085.94
2023-06-13T07:58:27.229Z,91087.31
2023-06-13T08:00:54.243Z,91078.53
2023-06-13T08:03:24.121Z,91081.41
2023-06-13T08:05:52.909Z,91080.22
2023-06-13T08:08:19.700Z,91080.38
2023-06-13T08:10:46.445Z,91078.16
2023-06-13T08:13:13.128Z,91079.34
2023-06-13T08:15:40.509Z,91074.38
2023-06-13T08:18:07.430Z,91072.63
2023-06-13T08:20:34.176Z,91075.00
2023-06-13T08:23:01.018Z,91074.53
2023-06-13T08:25:27.881Z,91071.44
2023-06-13T08:27:54.677Z,91072.75
2023-06-13T08:30:21.489Z,91069.56
2023-06-13T08:32:49.470Z,91074.63
2023-06-13T08:35:17.739Z,91066.66
2023-06-13T08:37:44.796Z,91064.69
2023-06-13T08:40:12.175Z,91062.75
2023-06-13T08:42:40.165Z,91061.69
2023-06-13T08:45:08.842Z,91055.44
2023-06-13T08:47:39.094Z,91057.09
2023-06-13T08:50:07.733Z,91056.53
2023-06-13T08:52:42.157Z,91052.22
2023-06-13T08:58:06.953Z,91052.38
2023-06-13T09:00:36.671Z,91050.66
2023-06-13T09:03:05.313Z,91047.63
2023-06-13T09:05:33.733Z,91052.69
2023-06-13T09:08:23.683Z,91049.44
2023-06-13T09:10:50.632Z,91050.00
2023-06-13T09:13:18.755Z,91037.84
2023-06-13T09:15:46.450Z,91043.91
2023-06-13T09:18:14.016Z,91043.91
2023-06-13T09:20:40.964Z,91047.59
2023-06-13T09:23:08.612Z,91039.75
2023-06-13T09:25:37.581Z,91047.22
2023-06-13T09:28:33.657Z,91039.13
2023-06-13T09:31:00.972Z,91038.69
2023-06-13T09:33:27.987Z,91049.34
2023-06-13T09:35:56.632Z,91039.13
2023-06-13T09:38:24.836Z,91040.06
2023-06-13T09:40:56.316Z,91044.44
2023-06-13T09:43:24.336Z,91044.34
2023-06-13T09:45:52.667Z,91045.25
2023-06-13T09:48:20.512Z,91042.09
2023-06-13T09:50:47.716Z,91038.47
2023-06-13T09:53:14.510Z,91041.94
2023-06-13T09:55:41.605Z,91039.72
2023-06-13T09:58:22.602Z,91042.97
2023-06-13T10:00:58.662Z,91039.88
2023-06-13T10:03:27.308Z,91037.06
2023-06-13T10:05:54.498Z,91029.94
2023-06-13T10:08:21.260Z,91033.38
2023-06-13T10:10:48.711Z,91033.91
2023-06-13T10:13:23.022Z,91037.63
2023-06-13T10:15:53.302Z,91032.22
2023-06-13T10:18:26.145Z,91036.72
2023-06-13T10:20:57.148Z,91033.91
2023-06-13T10:23:27.732Z,91033.34
2023-06-13T10:25:58.758Z,91038.84
2023-06-13T10:28:40.466Z,91024.94
2023-06-13T10:31:27.541Z,91020.22
2023-06-13T10:34:08.956Z,91027.69
2023-06-13T10:39:46.734Z,91027.09
2023-06-13T10:42:22.694Z,91025.94
2023-06-13T10:44:59.699Z,91015.66
2023-06-13T10:47:29.709Z,91019.31
2023-06-13T10:49:58.022Z,91016.41
2023-06-13T10:52:25.411Z,91003.59
2023-06-13T10:54:57.252Z,91012.91
2023-06-13T10:57:24.002Z,90994.81
2023-06-13T10:59:51.179Z,91003.81
2023-06-13T11:02:20.254Z,91013.91
2023-06-13T11:04:54.262Z,91008.59
2023-06-13T11:07:26.799Z,91007.22
2023-06-13T11:10:03.465Z,91011.41
2023-06-13T11:12:31.121Z,91005.94
2023-06-13T11:15:01.115Z,90996.59
2023-06-13T11:17:28.771Z,90987.09
2023-06-13T11:19:58.867Z,90997.75
2023-06-13T11:22:25.771Z,90989.19
2023-06-13T11:24:54.878Z,90992.06
2023-06-13T11:27:21.872Z,90998.34
2023-06-13T11:29:49.328Z,90995.97
2023-06-13T11:32:17.296Z,90990.44
2023-06-13T11:34:53.794Z,90978.72
2023-06-13T11:37:32.259Z,90983.63
2023-06-13T11:40:18.338Z,90972.06
2023-06-13T11:42:46.175Z,90979.94
2023-06-13T11:45:13.042Z,90978.63
2023-06-13T11:47:39.899Z,90974.78
2023-06-13T11:50:07.346Z,90974.47
2023-06-13T11:52:34.091Z,90966.75
2023-06-13T11:55:01.052Z,90960.31
2023-06-13T11:57:49.618Z,90964.53
2023-06-13T12:00:17.435Z,90967.44
2023-06-13T12:02:45.450Z,90968.84
2023-06-13T12:05:12.824Z,90969.22
2023-06-13T12:07:40.857Z,90969.28
2023-06-13T12:10:07.650Z,90954.91
2023-06-13T12:12:35.385Z,90956.06
2023-06-13T12:15:04.124Z,90957.69
2023-06-13T12:17:30.890Z,90954.16
2023-06-13T12:20:09.033Z,90954.28
2023-06-13T12:22:35.894Z,90952.69
2023-06-13T12:25:02.889Z,90948.53
2023-06-13T12:27:29.708Z,90947.28
2023-06-13T12:29:56.557Z,90947.69
2023-06-13T12:32:26.323Z,90946.16
2023-06-13T12:34:53.879Z,90947.03
2023-06-13T12:37:20.826Z,90935.44
2023-06-13T12:40:17.282Z,90938.84
2023-06-13T12:42:46.638Z,90935.41
2023-06-13T12:45:15.639Z,90928.53
2023-06-13T12:47:42.795Z,90933.50
2023-06-13T12:50:11.331Z,90925.13
2023-06-13T12:52:39.559Z,90927.13
2023-06-13T12:55:06.705Z,90925.69
2023-06-13T12:57:34.294Z,90924.88
2023-06-13T13:00:01.648Z,90925.31
2023-06-13T13:02:28.719Z,90924.19
2023-06-13T13:05:05.199Z,90923.22
2023-06-13T13:07:32.589Z,90921.47
2023-06-13T13:10:00.291Z,90925.41
2023-06-13T13:12:27.430Z,90928.88
2023-06-13T13:14:54.193Z,90919.25
2023-06-13T13:17:21.136Z,90915.31
2023-06-13T13:19:53.963Z,90917.13
2023-06-13T13:22:23.938Z,90922.34
2023-06-13T13:24:50.702Z,90927.13
2023-06-13T13:27:17.549Z,90931.00
2023-06-13T13:29:44.317Z,90924.94
2023-06-13T13:32:11.539Z,90925.34
2023-06-13T13:34:39.476Z,90923.88
2023-06-13T13:37:06.666Z,90921.47
2023-06-13T13:39:33.355Z,90922.50
2023-06-13T13:42:02.696Z,90919.66
2023-06-13T13:44:32.079Z,90922.63
2023-06-13T13:46:58.869Z,90922.69
2023-06-13T13:49:29.274Z,90919.72
2023-06-13T13:52:00.703Z,90915.44
2023-06-13T13:54:27.564Z,90916.16
2023-06-13T13:56:54.284Z,90923.44
2023-06-13T13:59:21.226Z,90923.59
2023-06-13T14:01:47.936Z,90929.22
2023-06-13T14:04:16.500Z,90913.50
2023-06-13T14:06:43.301Z,90924.34
2023-06-13T14:09:11.263Z,90920.06
2023-06-13T14:11:37.996Z,90927.47
2023-06-13T14:14:08.367Z,90926.56
2023-06-13T14:16:35.131Z,90932.66
2023-06-13T14:19:01.926Z,90928.06
2023-06-13T14:21:29.703Z,90924.66
2023-06-13T14:23:57.449Z,90920.88
2023-06-13T14:26:24.198Z,90924.34
2023-06-13T14:28:51.829Z,90923.59
2023-06-13T14:31:18.634Z,90918.25
2023-06-13T14:33:45.370Z,90932.22
2023-06-13T14:36:12.529Z,90923.47
2023-06-13T14:38:40.541Z,90924.06
2023-06-13T14:41:07.267Z,90929.78
2023-06-13T14:43:34.060Z,90923.44
2023-06-13T14:46:01.551Z,90916.19
2023-06-13T14:48:28.436Z,90916.34
2023-06-13T14:50:56.351Z,90920.94
2023-06-13T14:53:24.370Z,90917.66
2023-06-13T14:55:51.069Z,90929.44
2023-06-13T14:58:18.146Z,90903.00
2023-06-13T15:00:44.886Z,90930.28
2023-06-13T15:03:11.591Z,90922.09
2023-06-13T15:05:38.591Z,90926.06
2023-06-13T15:08:05.483Z,90917.19
2023-06-13T15:10:32.189Z,90910.75
2023-06-13T15:12:59.007Z,90920.66
2023-06-13T15:15:25.680Z,90919.72
2023-06-13T15:17:53.292Z,90925.53
2023-06-13T15:20:20.117Z,90928.31
2023-06-13T15:22:46.859Z,90928.38
2023-06-13T15:25:13.613Z,90936.56
2023-06-13T15:27:40.727Z,90933.00
2023-06-13T15:30:09.852Z,90940.94
2023-06-13T15:32:37.577Z,90939.28
2023-06-13T15:35:07.264Z,90935.28
2023-06-13T15:37:33.996Z,90951.44
2023-06-13T15:40:00.985Z,90956.81
2023-06-13T15:42:27.967Z,90955.19
2023-06-13T15:44:55.074Z,90955.63
2023-06-13T15:47:21.902Z,90955.94
2023-06-13T15:49:49.034Z,90947.69
2023-06-13T15:52:15.730Z,90950.38
2023-06-13T15:54:42.385Z,90956.00
2023-06-13T15:57:09.821Z,90953.56
2023-06-13T15:59:37.256Z,90929.44
2023-06-13T16:02:05.295Z,90959.97
2023-06-13T16:04:32.022Z,90962.72
2023-06-13T16:06:58.721Z,90968.88
2023-06-13T16:09:25.963Z,90969.69
2023-06-13T16:11:52.709Z,90971.66
2023-06-13T16:14:19.805Z,90970.50
2023-06-13T16:16:47.883Z,90982.19
2023-06-13T16:19:15.793Z,90993.66
2023-06-13T16:21:42.653Z,90994.13
2023-06-13T16:24:11.219Z,90997.56
2023-06-13T16:26:38.867Z,91001.59
2023-06-13T16:29:05.625Z,91002.59
2023-06-13T16:31:32.402Z,90995.66
2023-06-13T16:33:59.159Z,90993.63
2023-06-13T16:36:25.995Z,90995.06
2023-06-13T16:38:57.717Z,90987.03
2023-06-13T16:41:24.881Z,90989.53
2023-06-13T16:43:51.813Z,90994.19
2023-06-13T16:46:19.021Z,90999.31
2023-06-13T16:48:45.930Z,91000.47
2023-06-13T16:51:13.000Z,90999.66
2023-06-13T16:53:39.716Z,90996.66
2023-06-13T16:56:06.407Z,91002.47
2023-06-13T16:58:34.604Z,91000.47
2023-06-13T17:01:01.684Z,90996.91
2023-06-13T17:03:29.057Z,91010.50
2023-06-13T17:05:55.926Z,91010.63
2023-06-13T17:08:24.232Z,91009.91
2023-06-13T17:10:51.287Z,91003.09
2023-06-13T17:13:18.230Z,91015.38
2023-06-13T17:15:46.654Z,91002.53
2023-06-13T17:18:13.774Z,90999.66
2023-06-13T17:20:40.817Z,91016.50
2023-06-13T17:23:07.707Z,91010.44
2023-06-13T17:25:34.537Z,90998.13
2023-06-13T17:28:01.235Z,90995.81
2023-06-13T17:30:28.249Z,90992.00
2023-06-13T17:32:55.096Z,91000.19
2023-06-13T17:35:22.324Z,90998.28
2023-06-13T17:37:49.505Z,90992.66
2023-06-13T17:40:16.711Z,90994.00
2023-06-13T17:42:43.521Z,90997.88
2023-06-13T17:45:10.328Z,91002.28
2023-06-13T17:47:39.723Z,91006.56
2023-06-13T17:50:07.190Z,91013.28
2023-06-13T17:52:33.946Z,91003.34
2023-06-13T17:55:01.035Z,91009.44
2023-06-13T17:57:38.147Z,91019.53
2023-06-13T18:00:05.650Z,91013.28
2023-06-13T18:02:32.705Z,91020.09
2023-06-13T18:04:59.702Z,91025.38
2023-06-13T18:07:26.701Z,91023.53
2023-06-13T18:09:53.567Z,91023.38
2023-06-13T18:12:22.538Z,91018.22
2023-06-13T18:14:50.245Z,91025.69
2023-06-13T18:17:17.153Z,91026.66
2023-06-13T18:19:43.954Z,91035.63
2023-06-13T18:22:10.985Z,91031.81
2023-06-13T18:24:37.850Z,91037.53
2023-06-13T18:27:05.197Z,91039.34
2023-06-13T18:29:32.089Z,91039.91
2023-06-13T18:31:58.832Z,91049.81
2023-06-13T18:34:25.535Z,91053.19
2023-06-13T18:36:52.328Z,91053.25
2023-06-13T18:39:19.164Z,91055.63
2023-06-13T18:41:45.947Z,91058.63
2023-06-13T18:44:14.584Z,91061.75
2023-06-13T18:46:41.389Z,91067.59
2023-06-13T18:49:08.186Z,91063.84
2023-06-13T18:51:35.156Z,91066.91
2023-06-13T18:54:01.959Z,91069.41
2023-06-13T18:56:29.097Z,91070.38
2023-06-13T18:58:57.983Z,91085.41
2023-06-13T19:01:25.831Z,91088.56
2023-06-13T19:03:52.715Z,91078.97
2023-06-13T19:06:19.417Z,91087.00
2023-06-13T19:08:46.510Z,91088.06
2023-06-13T19:11:13.258Z,91100.34
2023-06-13T19:13:39.984Z,91098.19
2023-06-13T19:16:06.784Z,91102.63
2023-06-13T19:18:34.032Z,91102.81
2023-06-13T19:21:00.876Z,91100.25
2023-06-13T19:23:27.905Z,91110.28
2023-06-13T19:25:55.313Z,91101.41
2023-06-13T19:28:22.326Z,91073.00
2023-06-13T19:30:50.423Z,91112.72
2023-06-13T19:33:17.608Z,91115.56
2023-06-13T19:35:44.776Z,91115.22
2023-06-13T19:38:11.650Z,91116.97
2023-06-13T19:40:38.809Z,91113.72
2023-06-13T19:43:06.662Z,91117.84
2023-06-13T19:45:36.208Z,91122.78
2023-06-13T19:48:11.765Z,91115.16
2023-06-13T19:50:39.365Z,91116.50
2023-06-13T19:53:06.466Z,91117.28
2023-06-13T19:55:33.985Z,91119.81
2023-06-13T19:58:01.547Z,91125.47
2023-06-13T20:00:29.386Z,91121.88
2023-06-13T20:02:57.739Z,91119.22
2023-06-13T20:05:25.602Z,91131.06
2023-06-13T20:07:52.540Z,91132.03
2023-06-13T20:10:19.348Z,91130.59
2023-06-13T20:12:46.383Z,91135.03
2023-06-13T20:15:13.387Z,91136.56
2023-06-13T20:17:40.431Z,91135.00
2023-06-13T20:20:13.720Z,91128.06
2023-06-13T20:22:46.498Z,91132.94
2023-06-13T20:25:13.786Z,91129.69
2023-06-13T20:27:41.290Z,91124.41
2023-06-13T20:30:10.319Z,91131.06
2023-06-13T20:32:37.871Z,91129.44
2023-06-13T20:35:06.057Z,91121.53
2023-06-13T20:37:33.055Z,91120.72
2023-06-13T20:40:05.682Z,91122.31
2023-06-13T20:42:33.221Z,91119.56
2023-06-13T20:45:00.874Z,91123.59
2023-06-13T20:47:28.242Z,91119.09
2023-06-13T20:49:58.033Z,91119.72
2023-06-13T20:52:26.932Z,91110.16
2023-06-13T20:54:54.679Z,91120.97
2023-06-13T20:57:22.810Z,91118.31
2023-06-13T20:59:49.930Z,91123.47
2023-06-13T21:02:17.937Z,91123.91
2023-06-13T21:04:45.572Z,91124.66
2023-06-13T21:07:13.910Z,91125.47
2023-06-13T21:09:40.657Z,91129.09
2023-06-13T21:12:09.035Z,91123.41
2023-06-13T21:14:35.933Z,91125.38
2023-06-13T21:17:03.364Z,91120.19
2023-06-13T21:19:32.080Z,91123.69
2023-06-13T21:21:59.067Z,91131.16
2023-06-13T21:24:27.633Z,91125.09
2023-06-13T21:26:54.574Z,91136.59
2023-06-13T21:29:23.467Z,91130.00
2023-06-13T21:31:50.313Z,91129.22
2023-06-13T21:34:17.224Z,91127.78
2023-06-13T21:36:44.840Z,91125.56
2023-06-13T21:39:11.822Z,91125.56
2023-06-13T21:41:38.722Z,91130.09
2023-06-13T21:44:10.712Z,91129.34
2023-06-13T21:46:37.431Z,91127.94
2023-06-13T21:49:04.140Z,91132.56
2023-06-13T21:51:38.204Z,91138.63
2023-06-13T21:54:05.033Z,91143.19
2023-06-13T21:56:31.734Z,91142.25
2023-06-13T21:58:58.507Z,91121.94
2023-06-13T22:01:25.349Z,91144.81
2023-06-13T22:03:52.193Z,91140.69
2023-06-13T22:06:19.433Z,91135.03
2023-06-13T22:08:46.118Z,91139.97
2023-06-13T22:11:13.327Z,91144.16
2023-06-13T22:13:41.161Z,91149.13
2023-06-13T22:16:07.837Z,91142.34
2023-06-13T22:18:44.890Z,91135.63
2023-06-13T22:21:12.728Z,91143.25
2023-06-13T22:23:39.496Z,91136.88
2023-06-13T22:26:06.225Z,91134.28
2023-06-13T22:28:40.404Z,91133.53
2023-06-13T22:31:07.763Z,91134.19
2023-06-13T22:33:34.592Z,91137.94
2023-06-13T22:36:01.693Z,91130.91
2023-06-13T22:38:28.623Z,91141.72
2023-06-13T22:40:55.421Z,91141.00
2023-06-13T22:43:22.106Z,91137.41
2023-06-13T22:45:49.143Z,91134.03
2023-06-13T22:48:19.161Z,91138.16
2023-06-13T22:50:46.668Z,91137.38
2023-06-13T22:53:13.484Z,91130.66
2023-06-13T22:55:40.383Z,91134.09
2023-06-13T22:58:07.124Z,91138.97
2023-06-13T23:00:34.491Z,91137.81
2023-06-13T23:03:02.922Z,91138.16
2023-06-13T23:05:30.013Z,91142.06
2023-06-13T23:07:58.123Z,91136.78
2023-06-13T23:10:24.921Z,91140.09
2023-06-13T23:12:51.723Z,91135.16
2023-06-13T23:15:18.625Z,91146.09
2023-06-13T23:17:45.482Z,91139.00
2023-06-13T23:20:14.809Z,91142.91
2023-06-13T23:22:43.395Z,91139.06
2023-06-13T23:25:10.330Z,91134.16
2023-06-13T23:27:37.092Z,91140.56
2023-06-13T23:30:05.928Z,91131.56
2023-06-13T23:32:38.505Z,91125.22
2023-06-13T23:35:10.222Z,91132.00
2023-06-13T23:37:41.054Z,91130.75
2023-06-13T23:40:08.972Z,91137.13
2023-06-13T23:42:35.751Z,91137.94
2023-06-13T23:45:02.437Z,91132.34
2023-06-13T23:47:29.203Z,91130.81
2023-06-13T23:49:55.986Z,91128.56
2023-06-13T23:52:23.550Z,91126.38
2023-06-13T23:54:51.069Z,91130.88
2023-06-13T23:57:17.930Z,91130.03
2023-06-13T23:59:45.676Z,91120.63
